sensor_id;sensor_type;location;lat;lon;timestamp;pressure;altitude;pressure_sealevel;temperature;humidity
71768;BME280;59604;52.138;5.446;2023-03-26T00:00:50;100772.94;;;16.29;54.91
71768;BME280;59604;52.138;5.446;2023-03-26T00:03:19;100778.47;;;16.27;55.01
71768;BME280;59604;52.138;5.446;2023-03-26T00:05:45;100779.16;;;16.23;55.18
71768;BME280;59604;52.138;5.446;2023-03-26T00:08:15;100778.59;;;16.21;55.10
71768;BME280;59604;52.138;5.446;2023-03-26T00:10:42;100764.72;;;16.18;55.20
71768;BME280;59604;52.138;5.446;2023-03-26T00:13:10;100770.47;;;16.15;55.24
71768;BME280;59604;52.138;5.446;2023-03-26T00:15:37;100765.59;;;16.12;55.27
71768;BME280;59604;52.138;5.446;2023-03-26T00:18:03;100768.13;;;16.07;55.44
71768;BME280;59604;52.138;5.446;2023-03-26T00:20:31;100762.47;;;16.04;55.70
71768;BME280;59604;52.138;5.446;2023-03-26T00:23:00;100761.91;;;16.02;55.63
71768;BME280;59604;52.138;5.446;2023-03-26T00:25:27;100766.84;;;15.98;55.82
71768;BME280;59604;52.138;5.446;2023-03-26T00:27:53;100760.13;;;15.96;55.73
71768;BME280;59604;52.138;5.446;2023-03-26T00:30:20;100759.97;;;15.90;56.08
71768;BME280;59604;52.138;5.446;2023-03-26T00:32:46;100761.47;;;15.86;56.16
71768;BME280;59604;52.138;5.446;2023-03-26T00:35:19;100764.22;;;15.80;56.31
71768;BME280;59604;52.138;5.446;2023-03-26T00:37:46;100760.97;;;15.78;56.31
71768;BME280;59604;52.138;5.446;2023-03-26T00:40:13;100753.44;;;15.75;56.34
71768;BME280;59604;52.138;5.446;2023-03-26T00:42:39;100749.63;;;15.70;56.60
71768;BME280;59604;52.138;5.446;2023-03-26T00:45:07;100748.22;;;15.68;56.50
71768;BME280;59604;52.138;5.446;2023-03-26T00:47:34;100737.59;;;15.68;56.44
71768;BME280;59604;52.138;5.446;2023-03-26T00:50:02;100741.69;;;15.64;56.67
71768;BME280;59604;52.138;5.446;2023-03-26T00:52:29;100733.38;;;15.60;56.78
71768;BME280;59604;52.138;5.446;2023-03-26T00:54:56;100732.78;;;15.58;56.80
71768;BME280;59604;52.138;5.446;2023-03-26T00:57:23;100727.94;;;15.55;57.12
71768;BME280;59604;52.138;5.446;2023-03-26T01:00:04;100731.63;;;15.54;57.10
71768;BME280;59604;52.138;5.446;2023-03-26T01:02:32;100725.72;;;15.52;57.08
71768;BME280;59604;52.138;5.446;2023-03-26T01:04:59;100730.22;;;15.52;57.15
71768;BME280;59604;52.138;5.446;2023-03-26T01:07:28;100733.09;;;15.50;57.26
71768;BME280;59604;52.138;5.446;2023-03-26T01:09:58;100728.81;;;15.49;57.10
71768;BME280;59604;52.138;5.446;2023-03-26T01:12:26;100735.16;;;15.48;57.30
71768;BME280;59604;52.138;5.446;2023-03-26T01:14:58;100725.59;;;15.47;57.18
71768;BME280;59604;52.138;5.446;2023-03-26T01:17:27;100721.28;;;15.46;57.20
71768;BME280;59604;52.138;5.446;2023-03-26T01:20:08;100713.31;;;15.46;57.26
71768;BME280;59604;52.138;5.446;2023-03-26T01:22:41;100708.25;;;15.44;57.28
71768;BME280;59604;52.138;5.446;2023-03-26T01:25:09;100694.97;;;15.44;57.20
71768;BME280;59604;52.138;5.446;2023-03-26T01:35:50;100681.94;;;15.43;57.13
71768;BME280;59604;52.138;5.446;2023-03-26T01:40:45;100676.63;;;15.43;57.24
71768;BME280;59604;52.138;5.446;2023-03-26T01:43:29;100678.44;;;15.42;57.13
71768;BME280;59604;52.138;5.446;2023-03-26T01:46:00;100675.00;;;15.42;57.16
71768;BME280;59604;52.138;5.446;2023-03-26T01:48:37;100667.03;;;15.42;57.17
71768;BME280;59604;52.138;5.446;2023-03-26T01:51:05;100667.84;;;15.42;57.25
71768;BME280;59604;52.138;5.446;2023-03-26T01:53:44;100658.25;;;15.41;57.37
71768;BME280;59604;52.138;5.446;2023-03-26T01:56:30;100654.00;;;15.40;57.26
71768;BME280;59604;52.138;5.446;2023-03-26T02:02:06;100643.38;;;15.40;57.18
71768;BME280;59604;52.138;5.446;2023-03-26T02:04:43;100638.28;;;15.39;57.33
71768;BME280;59604;52.138;5.446;2023-03-26T02:09:49;100639.09;;;15.39;57.21
71768;BME280;59604;52.138;5.446;2023-03-26T02:12:20;100630.31;;;15.39;57.28
71768;BME280;59604;52.138;5.446;2023-03-26T02:14:48;100621.34;;;15.40;57.25
71768;BME280;59604;52.138;5.446;2023-03-26T02:17:14;100623.19;;;15.39;57.24
71768;BME280;59604;52.138;5.446;2023-03-26T02:19:42;100624.00;;;15.40;57.31
71768;BME280;59604;52.138;5.446;2023-03-26T02:22:10;100630.69;;;15.42;57.10
71768;BME280;59604;52.138;5.446;2023-03-26T02:24:42;100626.19;;;15.43;57.16
71768;BME280;59604;52.138;5.446;2023-03-26T02:27:08;100618.81;;;15.45;57.08
71768;BME280;59604;52.138;5.446;2023-03-26T02:29:37;100613.28;;;15.46;57.18
71768;BME280;59604;52.138;5.446;2023-03-26T02:32:07;100604.28;;;15.48;57.15
71768;BME280;59604;52.138;5.446;2023-03-26T02:34:34;100607.75;;;15.48;57.02
71768;BME280;59604;52.138;5.446;2023-03-26T02:37:02;100612.81;;;15.50;57.04
71768;BME280;59604;52.138;5.446;2023-03-26T02:39:28;100607.28;;;15.51;56.85
71768;BME280;59604;52.138;5.446;2023-03-26T02:41:55;100599.34;;;15.51;57.04
71768;BME280;59604;52.138;5.446;2023-03-26T02:44:21;100600.13;;;15.52;57.03
71768;BME280;59604;52.138;5.446;2023-03-26T02:46:48;100591.38;;;15.51;57.09
71768;BME280;59604;52.138;5.446;2023-03-26T02:49:14;100591.94;;;15.53;57.00
71768;BME280;59604;52.138;5.446;2023-03-26T02:51:41;100591.94;;;15.53;56.79
71768;BME280;59604;52.138;5.446;2023-03-26T02:54:08;100591.94;;;15.53;56.95
71768;BME280;59604;52.138;5.446;2023-03-26T02:56:35;100597.03;;;15.55;56.90
71768;BME280;59604;52.138;5.446;2023-03-26T02:59:02;100589.06;;;15.55;56.74
71768;BME280;59604;52.138;5.446;2023-03-26T03:01:28;100587.22;;;15.55;56.84
71768;BME280;59604;52.138;5.446;2023-03-26T03:03:56;100594.16;;;15.56;56.79
71768;BME280;59604;52.138;5.446;2023-03-26T03:06:22;100585.38;;;15.56;56.94
71768;BME280;59604;52.138;5.446;2023-03-26T03:08:51;100581.69;;;15.57;56.60
71768;BME280;59604;52.138;5.446;2023-03-26T03:11:19;100580.88;;;15.56;56.79
71768;BME280;59604;52.138;5.446;2023-03-26T03:13:51;100567.38;;;15.58;56.84
71768;BME280;59604;52.138;5.446;2023-03-26T03:16:18;100575.34;;;15.58;56.69
71768;BME280;59604;52.138;5.446;2023-03-26T03:18:45;100583.31;;;15.58;56.60
71768;BME280;59604;52.138;5.446;2023-03-26T03:21:20;100576.38;;;15.57;56.67
71768;BME280;59604;52.138;5.446;2023-03-26T03:23:46;100563.69;;;15.59;56.63
71768;BME280;59604;52.138;5.446;2023-03-26T03:26:15;100561.03;;;15.59;56.83
71768;BME280;59604;52.138;5.446;2023-03-26T03:28:42;100556.53;;;15.59;56.77
71768;BME280;59604;52.138;5.446;2023-03-26T03:31:10;100555.47;;;15.60;56.69
71768;BME280;59604;52.138;5.446;2023-03-26T03:33:36;100549.16;;;15.61;56.66
71768;BME280;59604;52.138;5.446;2023-03-26T03:36:03;100550.97;;;15.61;56.80
71768;BME280;59604;52.138;5.446;2023-03-26T03:38:46;100553.63;;;15.61;56.66
71768;BME280;59604;52.138;5.446;2023-03-26T03:41:12;100548.13;;;15.62;56.74
71768;BME280;59604;52.138;5.446;2023-03-26T03:43:39;100549.16;;;15.61;56.63
71768;BME280;59604;52.138;5.446;2023-03-26T03:46:06;100552.63;;;15.62;56.61
71768;BME280;59604;52.138;5.446;2023-03-26T03:48:33;100550.53;;;15.64;56.58
71768;BME280;59604;52.138;5.446;2023-03-26T03:51:04;100540.94;;;15.63;56.64
71768;BME280;59604;52.138;5.446;2023-03-26T03:53:31;100549.72;;;15.63;56.78
71768;BME280;59604;52.138;5.446;2023-03-26T03:56:03;100545.22;;;15.64;56.66
71768;BME280;59604;52.138;5.446;2023-03-26T03:58:30;100550.75;;;15.62;56.58
71768;BME280;59604;52.138;5.446;2023-03-26T04:00:56;100547.06;;;15.63;56.73
71768;BME280;59604;52.138;5.446;2023-03-26T04:03:29;100547.06;;;15.63;56.86
71768;BME280;59604;52.138;5.446;2023-03-26T04:05:59;100539.91;;;15.64;56.66
71768;BME280;59604;52.138;5.446;2023-03-26T04:08:26;100539.91;;;15.64;56.82
71768;BME280;59604;52.138;5.446;2023-03-26T04:10:52;100537.25;;;15.64;56.67
71768;BME280;59604;52.138;5.446;2023-03-26T04:13:19;100530.31;;;15.63;56.76
71768;BME280;59604;52.138;5.446;2023-03-26T04:15:45;100528.47;;;15.63;56.62
71768;BME280;59604;52.138;5.446;2023-03-26T04:18:12;100529.28;;;15.64;56.68
71768;BME280;59604;52.138;5.446;2023-03-26T04:20:41;100523.97;;;15.64;56.54
71768;BME280;59604;52.138;5.446;2023-03-26T04:23:13;100523.97;;;15.64;56.77
71768;BME280;59604;52.138;5.446;2023-03-26T04:25:42;100515.19;;;15.63;56.79
71768;BME280;59604;52.138;5.446;2023-03-26T04:28:30;100513.34;;;15.64;56.85
71768;BME280;59604;52.138;5.446;2023-03-26T04:30:59;100510.69;;;15.64;56.71
71768;BME280;59604;52.138;5.446;2023-03-26T04:33:29;100501.13;;;15.63;56.64
71768;BME280;59604;52.138;5.446;2023-03-26T04:35:57;100506.44;;;15.63;56.87
71768;BME280;59604;52.138;5.446;2023-03-26T04:38:29;100497.06;;;15.60;56.86
71768;BME280;59604;52.138;5.446;2023-03-26T04:40:59;100489.81;;;15.56;56.94
71768;BME280;59604;52.138;5.446;2023-03-26T04:43:29;100488.19;;;15.55;57.06
71768;BME280;59604;52.138;5.446;2023-03-26T04:45:56;100489.00;;;15.55;57.17
71768;BME280;59604;52.138;5.446;2023-03-26T04:48:23;100480.78;;;15.57;57.12
71768;BME280;59604;52.138;5.446;2023-03-26T04:50:50;100481.94;;;15.61;57.03
71768;BME280;59604;52.138;5.446;2023-03-26T04:53:18;100471.69;;;15.64;56.90
71768;BME280;59604;52.138;5.446;2023-03-26T04:55:53;100467.00;;;15.66;56.88
71768;BME280;59604;52.138;5.446;2023-03-26T04:58:21;100461.22;;;15.69;56.90
71768;BME280;59604;52.138;5.446;2023-03-26T05:00:59;100457.06;;;15.74;56.81
71768;BME280;59604;52.138;5.446;2023-03-26T05:03:36;100452.09;;;15.77;56.63
71768;BME280;59604;52.138;5.446;2023-03-26T05:06:04;100445.28;;;15.81;56.76
71768;BME280;59604;52.138;5.446;2023-03-26T05:08:31;100444.38;;;15.87;56.23
71768;BME280;59604;52.138;5.446;2023-03-26T05:10:57;100442.41;;;15.94;56.33
71768;BME280;59604;52.138;5.446;2023-03-26T05:13:24;100442.25;;;16.01;56.12
71768;BME280;59604;52.138;5.446;2023-03-26T05:15:50;100445.84;;;16.07;55.98
71768;BME280;59604;52.138;5.446;2023-03-26T05:18:17;100440.41;;;16.13;55.98
71768;BME280;59604;52.138;5.446;2023-03-26T05:20:44;100443.97;;;16.19;55.93
71768;BME280;59604;52.138;5.446;2023-03-26T05:23:11;100441.19;;;16.26;55.63
71768;BME280;59604;52.138;5.446;2023-03-26T05:25:38;100428.81;;;16.31;55.59
71768;BME280;59604;52.138;5.446;2023-03-26T05:28:04;100429.47;;;16.38;55.43
71768;BME280;59604;52.138;5.446;2023-03-26T05:30:31;100427.47;;;16.46;55.35
71768;BME280;59604;52.138;5.446;2023-03-26T05:32:58;100416.94;;;16.51;55.19
71768;BME280;59604;52.138;5.446;2023-03-26T05:35:24;100421.09;;;16.58;55.00
71768;BME280;59604;52.138;5.446;2023-03-26T05:37:51;100418.28;;;16.65;54.71
71768;BME280;59604;52.138;5.446;2023-03-26T05:40:18;100424.50;;;16.71;54.60
71768;BME280;59604;52.138;5.446;2023-03-26T05:42:45;100410.28;;;16.77;54.47
71768;BME280;59604;52.138;5.446;2023-03-26T05:45:13;100410.34;;;16.82;54.40
71768;BME280;59604;52.138;5.446;2023-03-26T05:47:40;100409.41;;;16.88;54.58
71768;BME280;59604;52.138;5.446;2023-03-26T05:50:08;100410.06;;;16.95;54.19
71768;BME280;59604;52.138;5.446;2023-03-26T05:52:35;100404.59;;;17.02;53.83
71768;BME280;59604;52.138;5.446;2023-03-26T05:55:02;100400.72;;;17.09;53.91
71768;BME280;59604;52.138;5.446;2023-03-26T05:57:29;100397.19;;;17.21;53.58
71768;BME280;59604;52.138;5.446;2023-03-26T05:59:56;100395.00;;;17.34;53.25
71768;BME280;59604;52.138;5.446;2023-03-26T06:02:23;100404.00;;;17.50;53.01
71768;BME280;59604;52.138;5.446;2023-03-26T06:04:49;100391.16;;;17.64;52.71
71768;BME280;59604;52.138;5.446;2023-03-26T06:07:17;100400.19;;;17.80;52.46
71768;BME280;59604;52.138;5.446;2023-03-26T06:09:45;100390.00;;;17.94;52.35
71768;BME280;59604;52.138;5.446;2023-03-26T06:12:12;100385.06;;;18.07;51.93
71768;BME280;59604;52.138;5.446;2023-03-26T06:14:39;100374.31;;;18.19;51.79
71768;BME280;59604;52.138;5.446;2023-03-26T06:17:08;100369.91;;;18.30;51.42
71768;BME280;59604;52.138;5.446;2023-03-26T06:19:36;100368.94;;;18.41;51.48
71768;BME280;59604;52.138;5.446;2023-03-26T06:22:03;100365.56;;;18.51;51.05
71768;BME280;59604;52.138;5.446;2023-03-26T06:24:31;100358.72;;;18.60;50.92
71768;BME280;59604;52.138;5.446;2023-03-26T06:26:58;100354.78;;;18.68;50.61
71768;BME280;59604;52.138;5.446;2023-03-26T06:29:24;100357.28;;;18.74;50.30
71768;BME280;59604;52.138;5.446;2023-03-26T06:31:51;100351.19;;;18.79;50.30
71768;BME280;59604;52.138;5.446;2023-03-26T06:34:17;100354.69;;;18.85;50.02
71768;BME280;59604;52.138;5.446;2023-03-26T06:36:44;100359.28;;;18.89;50.00
71768;BME280;59604;52.138;5.446;2023-03-26T06:39:10;100351.56;;;18.93;49.60
71768;BME280;59604;52.138;5.446;2023-03-26T06:41:37;100361.72;;;18.96;49.81
71768;BME280;59604;52.138;5.446;2023-03-26T06:44:03;100352.66;;;18.97;49.42
71768;BME280;59604;52.138;5.446;2023-03-26T06:46:30;100351.59;;;18.98;49.63
71768;BME280;59604;52.138;5.446;2023-03-26T06:48:57;100352.13;;;19.00;49.54
71768;BME280;59604;52.138;5.446;2023-03-26T06:51:23;100352.97;;;19.00;49.20
71768;BME280;59604;52.138;5.446;2023-03-26T06:53:50;100352.97;;;19.00;49.32
71768;BME280;59604;52.138;5.446;2023-03-26T06:56:17;100352.69;;;19.02;49.39
71768;BME280;59604;52.138;5.446;2023-03-26T06:58:43;100350.31;;;19.00;48.98
71768;BME280;59604;52.138;5.446;2023-03-26T07:01:10;100347.88;;;18.99;49.08
71768;BME280;59604;52.138;5.446;2023-03-26T07:03:36;100351.59;;;18.98;49.00
71768;BME280;59604;52.138;5.446;2023-03-26T07:06:03;100350.00;;;18.97;49.00
71768;BME280;59604;52.138;5.446;2023-03-26T07:08:29;100349.19;;;18.96;49.25
71768;BME280;59604;52.138;5.446;2023-03-26T07:10:56;100347.84;;;18.94;49.19
71768;BME280;59604;52.138;5.446;2023-03-26T07:13:23;100352.38;;;18.93;49.51
71768;BME280;59604;52.138;5.446;2023-03-26T07:15:50;100349.94;;;18.92;49.22
71768;BME280;59604;52.138;5.446;2023-03-26T07:18:16;100355.56;;;18.90;49.40
71768;BME280;59604;52.138;5.446;2023-03-26T07:20:44;100344.06;;;18.90;49.32
71768;BME280;59604;52.138;5.446;2023-03-26T07:23:11;100346.47;;;18.91;49.35
71768;BME280;59604;52.138;5.446;2023-03-26T07:25:41;100352.63;;;18.92;49.30
71768;BME280;59604;52.138;5.446;2023-03-26T07:30:59;100350.75;;;18.92;49.59
71768;BME280;59604;52.138;5.446;2023-03-26T07:36:29;100341.94;;;18.92;49.63
71768;BME280;59604;52.138;5.446;2023-03-26T07:44:21;100340.59;;;18.89;49.44
71768;BME280;59604;52.138;5.446;2023-03-26T07:46:53;100339.53;;;18.90;49.22
71768;BME280;59604;52.138;5.446;2023-03-26T07:49:20;100344.06;;;18.90;49.13
71768;BME280;59604;52.138;5.446;2023-03-26T07:51:47;100345.94;;;18.89;49.21
71768;BME280;59604;52.138;5.446;2023-03-26T07:54:14;100338.97;;;18.88;49.42
71768;BME280;59604;52.138;5.446;2023-03-26T07:59:51;100332.31;;;18.86;49.57
71768;BME280;59604;52.138;5.446;2023-03-26T08:05:33;100334.09;;;18.80;49.35
71768;BME280;59604;52.138;5.446;2023-03-26T08:08:24;100332.75;;;18.77;49.76
71768;BME280;59604;52.138;5.446;2023-03-26T08:14:30;100332.66;;;18.67;49.76
71768;BME280;59604;52.138;5.446;2023-03-26T08:23:07;100320.78;;;18.53;50.24
71768;BME280;59604;52.138;5.446;2023-03-26T08:31:04;100324.94;;;18.44;49.76
71768;BME280;59604;52.138;5.446;2023-03-26T08:33:30;100321.19;;;18.40;50.11
71768;BME280;59604;52.138;5.446;2023-03-26T08:36:02;100331.81;;;18.34;50.33
71768;BME280;59604;52.138;5.446;2023-03-26T08:38:29;100335.72;;;18.27;50.41
71768;BME280;59604;52.138;5.446;2023-03-26T08:47:08;100331.28;;;18.10;50.63
71768;BME280;59604;52.138;5.446;2023-03-26T08:52:39;100335.16;;;17.98;51.07
71768;BME280;59604;52.138;5.446;2023-03-26T09:03:48;100322.75;;;17.86;51.30
71768;BME280;59604;52.138;5.446;2023-03-26T09:17:50;100334.97;;;17.82;51.59
71768;BME280;59604;52.138;5.446;2023-03-26T09:23:37;100337.38;;;17.84;51.67
71768;BME280;59604;52.138;5.446;2023-03-26T09:29:35;100335.00;;;17.88;51.61
71768;BME280;59604;52.138;5.446;2023-03-26T09:37:16;100332.94;;;17.90;51.62
71768;BME280;59604;52.138;5.446;2023-03-26T09:39:46;100332.94;;;17.90;51.51
71768;BME280;59604;52.138;5.446;2023-03-26T09:50:25;100342.38;;;18.02;52.32
71768;BME280;59604;52.138;5.446;2023-03-26T10:06:38;100358.13;;;18.04;51.79
71768;BME280;59604;52.138;5.446;2023-03-26T10:09:39;100358.13;;;18.04;51.72
71768;BME280;59604;52.138;5.446;2023-03-26T10:15:10;100356.03;;;18.06;51.47
71768;BME280;59604;52.138;5.446;2023-03-26T10:23:06;100361.97;;;18.13;51.21
71768;BME280;59604;52.138;5.446;2023-03-26T10:28:47;100365.16;;;18.15;51.02
71768;BME280;59604;52.138;5.446;2023-03-26T10:34:03;100370.50;;;18.15;50.67
71768;BME280;59604;52.138;5.446;2023-03-26T10:37:08;100377.47;;;18.16;50.76
71768;BME280;59604;52.138;5.446;2023-03-26T10:53:31;100385.28;;;18.23;50.73
71768;BME280;59604;52.138;5.446;2023-03-26T10:56:08;100382.84;;;18.21;50.48
71768;BME280;59604;52.138;5.446;2023-03-26T10:58:39;100381.25;;;18.20;50.53
71768;BME280;59604;52.138;5.446;2023-03-26T11:01:29;100385.59;;;18.26;50.50
71768;BME280;59604;52.138;5.446;2023-03-26T11:09:52;100389.41;;;18.35;50.37
71768;BME280;59604;52.138;5.446;2023-03-26T11:12:34;100391.56;;;18.39;49.97
71768;BME280;59604;52.138;5.446;2023-03-26T11:15:19;100393.25;;;18.45;50.04
71768;BME280;59604;52.138;5.446;2023-03-26T11:32:02;100402.81;;;18.68;49.25
71768;BME280;59604;52.138;5.446;2023-03-26T11:34:39;100413.50;;;18.68;48.97
71768;BME280;59604;52.138;5.446;2023-03-26T11:37:15;100415.56;;;18.61;48.89
71768;BME280;59604;52.138;5.446;2023-03-26T11:39:52;100419.78;;;18.56;48.98
71768;BME280;59604;52.138;5.446;2023-03-26T11:42:23;100422.13;;;18.53;48.98
71768;BME280;59604;52.138;5.446;2023-03-26T11:44:52;100417.84;;;18.52;49.42
71768;BME280;59604;52.138;5.446;2023-03-26T11:47:23;100424.00;;;18.52;49.01
71768;BME280;59604;52.138;5.446;2023-03-26T11:49:57;100421.03;;;18.49;48.87
71768;BME280;59604;52.138;5.446;2023-03-26T11:52:26;100421.75;;;18.44;48.94
71768;BME280;59604;52.138;5.446;2023-03-26T11:54:52;100425.19;;;18.40;48.62
71768;BME280;59604;52.138;5.446;2023-03-26T11:57:26;100428.34;;;18.37;48.98
71768;BME280;59604;52.138;5.446;2023-03-26T12:00:03;100424.63;;;18.38;49.03
71768;BME280;59604;52.138;5.446;2023-03-26T12:02:39;100426.78;;;18.41;49.03
71768;BME280;59604;52.138;5.446;2023-03-26T12:07:51;100433.44;;;18.38;48.82
71768;BME280;59604;52.138;5.446;2023-03-26T12:10:24;100435.53;;;18.36;49.13
71768;BME280;59604;52.138;5.446;2023-03-26T12:12:53;100430.69;;;18.33;49.07
71768;BME280;59604;52.138;5.446;2023-03-26T12:15:21;100434.69;;;18.30;48.93
71768;BME280;59604;52.138;5.446;2023-03-26T12:17:51;100436.78;;;18.28;49.27
71768;BME280;59604;52.138;5.446;2023-03-26T12:22:59;100446.34;;;18.24;49.05
71768;BME280;59604;52.138;5.446;2023-03-26T12:25:31;100446.28;;;18.19;48.95
71768;BME280;59604;52.138;5.446;2023-03-26T12:28:03;100447.09;;;18.20;49.25
71768;BME280;59604;52.138;5.446;2023-03-26T12:30:34;100446.78;;;18.16;48.97
71768;BME280;59604;52.138;5.446;2023-03-26T12:33:09;100447.25;;;18.13;49.05
71768;BME280;59604;52.138;5.446;2023-03-26T12:35:41;100450.19;;;18.12;48.99
71768;BME280;59604;52.138;5.446;2023-03-26T12:40:41;100455.91;;;18.03;49.06
71768;BME280;59604;52.138;5.446;2023-03-26T12:43:27;100452.94;;;18.00;49.04
71768;BME280;59604;52.138;5.446;2023-03-26T12:46:26;100453.44;;;17.97;49.12
71768;BME280;59604;52.138;5.446;2023-03-26T12:49:14;100459.81;;;17.96;49.05
71768;BME280;59604;52.138;5.446;2023-03-26T12:51:53;100466.22;;;17.95;48.96
71768;BME280;59604;52.138;5.446;2023-03-26T12:57:23;100466.69;;;17.92;48.63
71768;BME280;59604;52.138;5.446;2023-03-26T13:09:12;100479.28;;;17.96;48.56
71768;BME280;59604;52.138;5.446;2023-03-26T13:23:04;100486.44;;;18.13;47.83
71768;BME280;59604;52.138;5.446;2023-03-26T13:33:45;100504.63;;;18.16;46.79
71768;BME280;59604;52.138;5.446;2023-03-26T13:41:54;100513.66;;;18.15;47.01
71768;BME280;59604;52.138;5.446;2023-03-26T13:47:17;100513.25;;;18.23;46.49
71768;BME280;59604;52.138;5.446;2023-03-26T13:49:49;100514.38;;;18.27;46.70
71768;BME280;59604;52.138;5.446;2023-03-26T13:52:32;100512.25;;;18.29;46.60
71768;BME280;59604;52.138;5.446;2023-03-26T13:57:50;100522.16;;;18.33;46.02
71768;BME280;59604;52.138;5.446;2023-03-26T14:00:29;100520.88;;;18.36;45.97
71768;BME280;59604;52.138;5.446;2023-03-26T14:03:06;100513.69;;;18.37;45.89
71768;BME280;59604;52.138;5.446;2023-03-26T14:05:42;100525.41;;;18.35;45.83
71768;BME280;59604;52.138;5.446;2023-03-26T14:08:18;100531.31;;;18.38;45.98
71768;BME280;59604;52.138;5.446;2023-03-26T14:10:51;100528.06;;;18.35;45.68
71768;BME280;59604;52.138;5.446;2023-03-26T14:13:26;100537.13;;;18.34;45.86
71768;BME280;59604;52.138;5.446;2023-03-26T14:15:58;100536.06;;;18.35;45.55
71768;BME280;59604;52.138;5.446;2023-03-26T14:32:05;100563.31;;;18.38;45.33
71768;BME280;59604;52.138;5.446;2023-03-26T14:34:58;100557.97;;;18.38;44.99
71768;BME280;59604;52.138;5.446;2023-03-26T14:37:46;100569.66;;;18.37;44.79
71768;BME280;59604;52.138;5.446;2023-03-26T14:41:10;100578.72;;;18.35;44.51
71768;BME280;59604;52.138;5.446;2023-03-26T14:46:13;100584.13;;;18.41;44.17
71768;BME280;59604;52.138;5.446;2023-03-26T14:49:03;100587.63;;;18.41;44.13
71768;BME280;59604;52.138;5.446;2023-03-26T14:54:22;100599.09;;;18.42;43.85
71768;BME280;59604;52.138;5.446;2023-03-26T15:05:58;100626.00;;;18.40;43.40
71768;BME280;59604;52.138;5.446;2023-03-26T15:14:59;100636.66;;;18.40;43.16
71768;BME280;59604;52.138;5.446;2023-03-26T15:31:34;100649.25;;;18.62;42.16
71768;BME280;59604;52.138;5.446;2023-03-26T15:34:17;100657.03;;;18.63;41.58
71768;BME280;59604;52.138;5.446;2023-03-26T15:37:14;100661.78;;;18.61;42.13
71768;BME280;59604;52.138;5.446;2023-03-26T15:39:45;100668.97;;;18.61;42.56
71768;BME280;59604;52.138;5.446;2023-03-26T15:42:31;100662.25;;;18.58;42.27
71768;BME280;59604;52.138;5.446;2023-03-26T15:45:21;100679.00;;;18.53;41.65
71768;BME280;59604;52.138;5.446;2023-03-26T15:48:02;100685.09;;;18.49;41.55
71768;BME280;59604;52.138;5.446;2023-03-26T15:58:43;100719.34;;;18.40;41.48
71768;BME280;59604;52.138;5.446;2023-03-26T16:07:00;100735.25;;;18.35;41.19
71768;BME280;59604;52.138;5.446;2023-03-26T16:09:39;100739.00;;;18.34;41.07
71768;BME280;59604;52.138;5.446;2023-03-26T16:14:43;100749.31;;;18.30;41.19
71768;BME280;59604;52.138;5.446;2023-03-26T16:17:18;100755.47;;;18.31;40.86
71768;BME280;59604;52.138;5.446;2023-03-26T16:22:57;100755.47;;;18.31;41.38
71768;BME280;59604;52.138;5.446;2023-03-26T16:25:34;100760.53;;;18.32;40.66
71768;BME280;59604;52.138;5.446;2023-03-26T16:28:31;100772.28;;;18.31;40.64
71768;BME280;59604;52.138;5.446;2023-03-26T16:36:46;100782.59;;;18.28;39.86
71768;BME280;59604;52.138;5.446;2023-03-26T16:41:59;100797.81;;;18.27;40.43
71768;BME280;59604;52.138;5.446;2023-03-26T16:47:31;100806.28;;;18.24;40.05
71768;BME280;59604;52.138;5.446;2023-03-26T16:53:19;100833.19;;;18.23;39.85
71768;BME280;59604;52.138;5.446;2023-03-26T16:55:58;100831.47;;;18.17;39.58
71768;BME280;59604;52.138;5.446;2023-03-26T16:58:32;100833.78;;;18.13;39.38
71768;BME280;59604;52.138;5.446;2023-03-26T17:04:07;100845.41;;;18.07;39.56
71768;BME280;59604;52.138;5.446;2023-03-26T17:06:50;100864.19;;;18.00;39.43
71768;BME280;59604;52.138;5.446;2023-03-26T17:12:02;100871.44;;;17.76;39.55
71768;BME280;59604;52.138;5.446;2023-03-26T17:14:44;100880.31;;;17.70;39.67
71768;BME280;59604;52.138;5.446;2023-03-26T17:17:28;100881.50;;;17.62;39.48
71768;BME280;59604;52.138;5.446;2023-03-26T17:20:23;100873.88;;;17.54;39.66
71768;BME280;59604;52.138;5.446;2023-03-26T17:26:03;100902.72;;;17.46;39.70
71768;BME280;59604;52.138;5.446;2023-03-26T17:35:12;100920.50;;;17.33;39.84
71768;BME280;59604;52.138;5.446;2023-03-26T17:45:07;100947.84;;;17.29;39.93
71768;BME280;59604;52.138;5.446;2023-03-26T17:47:41;100955.00;;;17.28;39.50
71768;BME280;59604;52.138;5.446;2023-03-26T17:50:15;100950.50;;;17.29;39.46
71768;BME280;59604;52.138;5.446;2023-03-26T17:55:29;100960.34;;;17.28;39.18
71768;BME280;59604;52.138;5.446;2023-03-26T17:58:18;100958.47;;;17.29;39.61
71768;BME280;59604;52.138;5.446;2023-03-26T18:00:49;100973.41;;;17.30;39.08
71768;BME280;59604;52.138;5.446;2023-03-26T18:03:22;100975.88;;;17.31;39.53
71768;BME280;59604;52.138;5.446;2023-03-26T18:06:04;100991.59;;;17.33;39.13
71768;BME280;59604;52.138;5.446;2023-03-26T18:08:39;100993.22;;;17.34;39.56
71768;BME280;59604;52.138;5.446;2023-03-26T18:14:15;101001.00;;;17.35;39.56
71768;BME280;59604;52.138;5.446;2023-03-26T18:16:48;101008.72;;;17.37;38.92
71768;BME280;59604;52.138;5.446;2023-03-26T18:19:19;101014.06;;;17.37;39.14
71768;BME280;59604;52.138;5.446;2023-03-26T18:21:52;101013.03;;;17.38;39.32
71768;BME280;59604;52.138;5.446;2023-03-26T18:24:24;101017.31;;;17.39;39.23
71768;BME280;59604;52.138;5.446;2023-03-26T18:29:32;101025.06;;;17.41;39.22
71768;BME280;59604;52.138;5.446;2023-03-26T18:34:44;101041.03;;;17.41;38.71
71768;BME280;59604;52.138;5.446;2023-03-26T18:37:19;101043.50;;;17.42;39.12
71768;BME280;59604;52.138;5.446;2023-03-26T18:40:09;101053.34;;;17.42;38.89